sensor_id;sensor_type;location;lat;lon;timestamp;P1;P2;P0
30713;PMS7003;17465;47.934;33.430;2023-07-13T00:01:09;21.40;20.60;15.20
30713;PMS7003;17465;47.934;33.430;2023-07-13T00:03:39;23.40;21.20;15.00
30713;PMS7003;17465;47.934;33.430;2023-07-13T00:06:10;23.60;21.60;14.60
30713;PMS7003;17465;47.934;33.430;2023-07-13T00:08:41;22.50;22.50;14.00
30713;PMS7003;17465;47.934;33.430;2023-07-13T00:11:12;23.75;23.00;16.75
30713;PMS7003;17465;47.934;33.430;2023-07-13T00:13:43;25.50;25.50;18.25
30713;PMS7003;17465;47.934;33.430;2023-07-13T00:16:14;27.75;24.75;17.25
30713;PMS7003;17465;47.934;33.430;2023-07-13T00:18:44;30.50;29.25;18.25
30713;PMS7003;17465;47.934;33.430;2023-07-13T00:21:15;31.75;29.00;19.00
30713;PMS7003;17465;47.934;33.430;2023-07-13T00:23:46;28.75;28.75;19.25
30713;PMS7003;17465;47.934;33.430;2023-07-13T00:26:17;31.00;28.25;19.00
30713;PMS7003;17465;47.934;33.430;2023-07-13T00:28:48;25.75;25.00;16.25
30713;PMS7003;17465;47.934;33.430;2023-07-13T00:31:18;26.25;23.75;17.75
30713;PMS7003;17465;47.934;33.430;2023-07-13T00:33:49;26.00;23.25;17.50
30713;PMS7003;17465;47.934;33.430;2023-07-13T00:36:19;23.00;22.00;12.50
30713;PMS7003;17465;47.934;33.430;2023-07-13T00:38:49;24.75;23.25;14.25
30713;PMS7003;17465;47.934;33.430;2023-07-13T00:41:20;24.25;23.75;16.25
30713;PMS7003;17465;47.934;33.430;2023-07-13T00:43:51;25.25;23.75;17.00
30713;PMS7003;17465;47.934;33.430;2023-07-13T00:46:22;27.50;26.50;17.75
30713;PMS7003;17465;47.934;33.430;2023-07-13T00:48:56;23.75;21.50;15.00
30713;PMS7003;17465;47.934;33.430;2023-07-13T00:51:31;25.00;25.00;15.00
30713;PMS7003;17465;47.934;33.430;2023-07-13T00:54:03;24.00;23.00;16.00
30713;PMS7003;17465;47.934;33.430;2023-07-13T00:56:35;29.50;29.25;20.25
30713;PMS7003;17465;47.934;33.430;2023-07-13T00:59:08;28.75;27.50;19.25
30713;PMS7003;17465;47.934;33.430;2023-07-13T01:01:42;29.50;28.50;18.75
30713;PMS7003;17465;47.934;33.430;2023-07-13T01:04:12;26.75;26.75;19.50
30713;PMS7003;17465;47.934;33.430;2023-07-13T01:06:43;23.75;22.25;16.75
30713;PMS7003;17465;47.934;33.430;2023-07-13T01:09:15;19.50;19.50;13.50
30713;PMS7003;17465;47.934;33.430;2023-07-13T01:11:46;24.50;22.75;16.00
30713;PMS7003;17465;47.934;33.430;2023-07-13T01:14:17;25.25;23.00;17.25
30713;PMS7003;17465;47.934;33.430;2023-07-13T01:16:47;24.00;24.00;14.50
30713;PMS7003;17465;47.934;33.430;2023-07-13T01:19:36;24.75;23.25;19.00
30713;PMS7003;17465;47.934;33.430;2023-07-13T01:22:12;22.75;22.75;15.50
30713;PMS7003;17465;47.934;33.430;2023-07-13T01:24:47;22.00;22.00;15.75
30713;PMS7003;17465;47.934;33.430;2023-07-13T01:27:20;22.25;20.25;14.25
30713;PMS7003;17465;47.934;33.430;2023-07-13T01:29:53;17.00;16.25;12.00
30713;PMS7003;17465;47.934;33.430;2023-07-13T01:32:24;22.50;21.50;16.75
30713;PMS7003;17465;47.934;33.430;2023-07-13T01:35:00;19.25;18.75;13.75
30713;PMS7003;17465;47.934;33.430;2023-07-13T01:37:30;20.25;19.25;12.75
30713;PMS7003;17465;47.934;33.430;2023-07-13T01:40:02;22.00;21.00;13.50
30713;PMS7003;17465;47.934;33.430;2023-07-13T01:42:33;25.00;24.75;16.25
30713;PMS7003;17465;47.934;33.430;2023-07-13T01:45:06;22.50;21.25;14.00
30713;PMS7003;17465;47.934;33.430;2023-07-13T01:47:36;22.20;20.40;11.60
30713;PMS7003;17465;47.934;33.430;2023-07-13T01:50:10;23.40;22.20;12.80
30713;PMS7003;17465;47.934;33.430;2023-07-13T01:52:40;22.80;21.40;14.80
30713;PMS7003;17465;47.934;33.430;2023-07-13T01:55:11;8.20;7.00;1.80
30713;PMS7003;17465;47.934;33.430;2023-07-13T01:57:41;19.80;16.20;12.80
30713;PMS7003;17465;47.934;33.430;2023-07-13T02:00:14;20.00;20.00;13.00
30713;PMS7003;17465;47.934;33.430;2023-07-13T02:06:14;20.80;19.80;11.00
30713;PMS7003;17465;47.934;33.430;2023-07-13T02:08:45;14.00;13.20;5.60
30713;PMS7003;17465;47.934;33.430;2023-07-13T02:11:17;19.60;19.40;12.20
30713;PMS7003;17465;47.934;33.430;2023-07-13T02:13:48;25.80;20.80;16.00
30713;PMS7003;17465;47.934;33.430;2023-07-13T02:16:18;19.60;17.80;11.40
30713;PMS7003;17465;47.934;33.430;2023-07-13T02:18:49;20.20;19.00;13.60
30713;PMS7003;17465;47.934;33.430;2023-07-13T02:21:20;15.40;14.80;10.20
30713;PMS7003;17465;47.934;33.430;2023-07-13T02:23:52;18.80;17.80;11.20
30713;PMS7003;17465;47.934;33.430;2023-07-13T02:26:23;19.80;19.20;12.80
30713;PMS7003;17465;47.934;33.430;2023-07-13T02:28:54;16.00;16.00;11.80
30713;PMS7003;17465;47.934;33.430;2023-07-13T02:31:25;15.60;14.40;11.20
30713;PMS7003;17465;47.934;33.430;2023-07-13T02:33:58;18.80;16.60;11.80
30713;PMS7003;17465;47.934;33.430;2023-07-13T02:36:31;15.20;15.20;10.20
30713;PMS7003;17465;47.934;33.430;2023-07-13T02:39:04;19.00;18.50;11.75
30713;PMS7003;17465;47.934;33.430;2023-07-13T02:41:37;16.25;15.00;10.50
30713;PMS7003;17465;47.934;33.430;2023-07-13T02:44:08;17.80;16.80;10.80
30713;PMS7003;17465;47.934;33.430;2023-07-13T02:46:39;16.20;14.80;10.60
30713;PMS7003;17465;47.934;33.430;2023-07-13T02:49:09;18.25;17.25;12.00
30713;PMS7003;17465;47.934;33.430;2023-07-13T02:51:40;20.25;18.50;14.00
30713;PMS7003;17465;47.934;33.430;2023-07-13T02:54:10;16.20;16.00;11.80
30713;PMS7003;17465;47.934;33.430;2023-07-13T02:56:41;22.00;19.00;14.20
30713;PMS7003;17465;47.934;33.430;2023-07-13T02:59:11;20.00;19.40;12.80
30713;PMS7003;17465;47.934;33.430;2023-07-13T03:01:42;21.40;20.20;12.60
30713;PMS7003;17465;47.934;33.430;2023-07-13T03:04:18;18.40;17.00;11.60
30713;PMS7003;17465;47.934;33.430;2023-07-13T03:06:49;16.40;15.40;9.20
30713;PMS7003;17465;47.934;33.430;2023-07-13T03:09:19;20.40;19.60;13.80
30713;PMS7003;17465;47.934;33.430;2023-07-13T03:11:54;20.00;17.80;12.00
30713;PMS7003;17465;47.934;33.430;2023-07-13T03:14:25;18.80;17.80;11.80
30713;PMS7003;17465;47.934;33.430;2023-07-13T03:16:55;17.00;15.40;10.20
30713;PMS7003;17465;47.934;33.430;2023-07-13T03:19:26;21.60;20.00;14.00
30713;PMS7003;17465;47.934;33.430;2023-07-13T03:21:56;20.40;17.60;12.20
30713;PMS7003;17465;47.934;33.430;2023-07-13T03:24:26;19.20;18.40;13.00
30713;PMS7003;17465;47.934;33.430;2023-07-13T03:26:57;24.20;21.20;13.60
30713;PMS7003;17465;47.934;33.430;2023-07-13T03:29:27;16.25;15.25;11.00
30713;PMS7003;17465;47.934;33.430;2023-07-13T03:31:59;21.00;21.00;14.40
30713;PMS7003;17465;47.934;33.430;2023-07-13T03:34:30;16.60;14.80;11.80
30713;PMS7003;17465;47.934;33.430;2023-07-13T03:37:06;21.60;19.60;12.20
30713;PMS7003;17465;47.934;33.430;2023-07-13T03:39:33;15.40;14.00;7.40
30713;PMS7003;17465;47.934;33.430;2023-07-13T03:42:05;22.00;21.80;14.00
30713;PMS7003;17465;47.934;33.430;2023-07-13T03:44:36;21.20;20.80;14.20
30713;PMS7003;17465;47.934;33.430;2023-07-13T03:47:08;24.60;23.80;16.00
30713;PMS7003;17465;47.934;33.430;2023-07-13T03:49:39;22.40;22.20;15.00
30713;PMS7003;17465;47.934;33.430;2023-07-13T03:52:09;20.00;20.00;14.80
30713;PMS7003;17465;47.934;33.430;2023-07-13T03:54:39;24.40;24.20;14.80
30713;PMS7003;17465;47.934;33.430;2023-07-13T03:57:10;22.60;20.40;13.00
30713;PMS7003;17465;47.934;33.430;2023-07-13T03:59:40;27.80;26.80;16.20
30713;PMS7003;17465;47.934;33.430;2023-07-13T04:02:11;29.40;28.40;17.60
30713;PMS7003;17465;47.934;33.430;2023-07-13T04:04:41;29.60;28.20;18.80
30713;PMS7003;17465;47.934;33.430;2023-07-13T04:07:15;43.75;36.00;23.00
30713;PMS7003;17465;47.934;33.430;2023-07-13T04:09:47;36.25;30.00;19.00
30713;PMS7003;17465;47.934;33.430;2023-07-13T04:14:52;46.25;38.00;25.00
30713;PMS7003;17465;47.934;33.430;2023-07-13T04:17:22;47.00;40.00;26.75
30713;PMS7003;17465;47.934;33.430;2023-07-13T04:19:53;44.00;37.75;23.00
30713;PMS7003;17465;47.934;33.430;2023-07-13T04:22:23;50.25;42.50;28.75
30713;PMS7003;17465;47.934;33.430;2023-07-13T04:24:54;51.25;43.00;29.00
30713;PMS7003;17465;47.934;33.430;2023-07-13T04:27:24;46.25;40.00;27.00
30713;PMS7003;17465;47.934;33.430;2023-07-13T04:29:55;43.00;36.75;25.00
30713;PMS7003;17465;47.934;33.430;2023-07-13T04:32:25;44.75;37.25;24.75
30713;PMS7003;17465;47.934;33.430;2023-07-13T04:34:56;41.00;33.00;20.75
30713;PMS7003;17465;47.934;33.430;2023-07-13T04:37:26;38.25;33.00;22.00
30713;PMS7003;17465;47.934;33.430;2023-07-13T04:40:00;34.20;31.00;21.40
30713;PMS7003;17465;47.934;33.430;2023-07-13T04:42:30;38.00;33.00;22.75
30713;PMS7003;17465;47.934;33.430;2023-07-13T04:45:01;37.00;31.20;22.00
30713;PMS7003;17465;47.934;33.430;2023-07-13T04:47:32;26.60;26.20;19.00
30713;PMS7003;17465;47.934;33.430;2023-07-13T04:50:08;22.80;22.20;14.00
30713;PMS7003;17465;47.934;33.430;2023-07-13T04:52:39;22.00;22.00;16.40
30713;PMS7003;17465;47.934;33.430;2023-07-13T04:55:10;32.40;28.80;19.20
30713;PMS7003;17465;47.934;33.430;2023-07-13T04:57:47;32.20;30.00;20.20
30713;PMS7003;17465;47.934;33.430;2023-07-13T05:00:18;34.60;30.80;20.00
30713;PMS7003;17465;47.934;33.430;2023-07-13T05:02:49;44.25;37.50;25.00
30713;PMS7003;17465;47.934;33.430;2023-07-13T05:05:20;67.50;57.00;40.25
30713;PMS7003;17465;47.934;33.430;2023-07-13T05:07:57;70.50;65.50;49.25
30713;PMS7003;17465;47.934;33.430;2023-07-13T05:10:23;78.25;75.75;57.25
30713;PMS7003;17465;47.934;33.430;2023-07-13T05:12:54;75.50;73.25;53.50
30713;PMS7003;17465;47.934;33.430;2023-07-13T05:15:32;72.50;69.75;53.25
30713;PMS7003;17465;47.934;33.430;2023-07-13T05:18:02;73.75;69.25;50.00
30713;PMS7003;17465;47.934;33.430;2023-07-13T05:20:29;82.75;78.25;55.50
30713;PMS7003;17465;47.934;33.430;2023-07-13T05:23:02;73.50;69.75;51.00
30713;PMS7003;17465;47.934;33.430;2023-07-13T05:25:34;74.50;72.25;53.25
30713;PMS7003;17465;47.934;33.430;2023-07-13T05:28:04;77.50;75.00;55.25
30713;PMS7003;17465;47.934;33.430;2023-07-13T05:30:35;70.75;65.50;48.75
30713;PMS7003;17465;47.934;33.430;2023-07-13T05:33:06;78.00;77.00;56.25
30713;PMS7003;17465;47.934;33.430;2023-07-13T05:35:37;72.75;68.50;51.25
30713;PMS7003;17465;47.934;33.430;2023-07-13T05:38:07;75.25;72.25;55.00
30713;PMS7003;17465;47.934;33.430;2023-07-13T05:40:45;69.75;64.00;45.75
30713;PMS7003;17465;47.934;33.430;2023-07-13T05:43:16;74.25;71.75;53.75
30713;PMS7003;17465;47.934;33.430;2023-07-13T05:45:46;66.00;53.75;39.75
30713;PMS7003;17465;47.934;33.430;2023-07-13T05:48:17;62.50;53.00;39.75
30713;PMS7003;17465;47.934;33.430;2023-07-13T05:50:52;58.75;48.00;34.75
30713;PMS7003;17465;47.934;33.430;2023-07-13T05:53:21;47.50;39.50;27.75
30713;PMS7003;17465;47.934;33.430;2023-07-13T05:55:53;45.00;39.00;27.25
30713;PMS7003;17465;47.934;33.430;2023-07-13T05:58:24;55.25;45.00;31.00
30713;PMS7003;17465;47.934;33.430;2023-07-13T06:00:58;52.00;42.00;30.00
30713;PMS7003;17465;47.934;33.430;2023-07-13T06:03:37;51.00;41.25;29.00
30713;PMS7003;17465;47.934;33.430;2023-07-13T06:06:08;61.00;49.50;35.75
30713;PMS7003;17465;47.934;33.430;2023-07-13T06:08:39;63.75;52.25;39.75
30713;PMS7003;17465;47.934;33.430;2023-07-13T06:11:14;63.25;54.25;37.75
30713;PMS7003;17465;47.934;33.430;2023-07-13T06:13:46;59.75;49.00;31.75
30713;PMS7003;17465;47.934;33.430;2023-07-13T06:16:17;67.25;59.50;42.50
30713;PMS7003;17465;47.934;33.430;2023-07-13T06:18:48;52.00;42.75;31.75
30713;PMS7003;17465;47.934;33.430;2023-07-13T06:21:20;48.00;39.25;29.25
30713;PMS7003;17465;47.934;33.430;2023-07-13T06:23:51;48.25;40.50;30.00
30713;PMS7003;17465;47.934;33.430;2023-07-13T06:26:22;53.25;44.25;31.00
30713;PMS7003;17465;47.934;33.430;2023-07-13T06:28:55;51.25;42.25;30.75
30713;PMS7003;17465;47.934;33.430;2023-07-13T06:31:25;49.50;41.00;29.50
30713;PMS7003;17465;47.934;33.430;2023-07-13T06:33:58;55.75;46.25;35.00
30713;PMS7003;17465;47.934;33.430;2023-07-13T06:36:29;46.00;38.00;28.00
30713;PMS7003;17465;47.934;33.430;2023-07-13T06:39:21;44.40;37.00;27.40
30713;PMS7003;17465;47.934;33.430;2023-07-13T06:41:54;58.50;47.00;33.25
30713;PMS7003;17465;47.934;33.430;2023-07-13T06:44:28;52.25;43.25;31.00
30713;PMS7003;17465;47.934;33.430;2023-07-13T06:47:00;39.20;34.00;25.80
30713;PMS7003;17465;47.934;33.430;2023-07-13T06:49:31;48.50;40.75;29.75
30713;PMS7003;17465;47.934;33.430;2023-07-13T06:52:02;46.40;38.80;28.00
30713;PMS7003;17465;47.934;33.430;2023-07-13T06:54:37;45.00;38.40;27.20
30713;PMS7003;17465;47.934;33.430;2023-07-13T06:57:08;32.80;29.80;21.60
30713;PMS7003;17465;47.934;33.430;2023-07-13T06:59:39;34.80;31.20;23.20
30713;PMS7003;17465;47.934;33.430;2023-07-13T07:02:10;35.80;30.80;22.00
30713;PMS7003;17465;47.934;33.430;2023-07-13T07:04:40;24.80;24.80;18.80
30713;PMS7003;17465;47.934;33.430;2023-07-13T07:07:11;25.00;23.80;17.80
30713;PMS7003;17465;47.934;33.430;2023-07-13T07:09:41;37.20;32.00;23.20
30713;PMS7003;17465;47.934;33.430;2023-07-13T07:12:12;33.60;30.20;22.80
30713;PMS7003;17465;47.934;33.430;2023-07-13T07:14:43;29.40;27.60;20.20
30713;PMS7003;17465;47.934;33.430;2023-07-13T07:17:13;17.60;17.60;15.60
30713;PMS7003;17465;47.934;33.430;2023-07-13T07:19:44;33.80;30.00;22.80
30713;PMS7003;17465;47.934;33.430;2023-07-13T07:22:15;18.40;18.20;16.00
30713;PMS7003;17465;47.934;33.430;2023-07-13T07:24:45;13.80;13.20;10.00
30713;PMS7003;17465;47.934;33.430;2023-07-13T07:27:15;16.60;16.60;14.00
30713;PMS7003;17465;47.934;33.430;2023-07-13T07:29:47;17.40;17.40;14.20
30713;PMS7003;17465;47.934;33.430;2023-07-13T07:32:19;19.20;18.40;14.20
30713;PMS7003;17465;47.934;33.430;2023-07-13T07:34:51;19.60;18.40;12.80
30713;PMS7003;17465;47.934;33.430;2023-07-13T07:37:22;16.60;15.80;12.60
30713;PMS7003;17465;47.934;33.430;2023-07-13T07:39:54;15.00;13.60;10.40
30713;PMS7003;17465;47.934;33.430;2023-07-13T07:42:26;11.00;11.00;8.20
30713;PMS7003;17465;47.934;33.430;2023-07-13T07:44:56;6.80;6.80;3.80
30713;PMS7003;17465;47.934;33.430;2023-07-13T07:47:27;7.60;7.60;5.00
30713;PMS7003;17465;47.934;33.430;2023-07-13T07:49:58;8.00;8.00;6.80
30713;PMS7003;17465;47.934;33.430;2023-07-13T07:52:28;9.40;9.40;7.00
30713;PMS7003;17465;47.934;33.430;2023-07-13T07:54:58;9.60;9.60;7.80
30713;PMS7003;17465;47.934;33.430;2023-07-13T07:57:30;10.20;10.00;8.60
30713;PMS7003;17465;47.934;33.430;2023-07-13T08:00:04;10.40;10.40;7.80
30713;PMS7003;17465;47.934;33.430;2023-07-13T08:02:37;14.40;14.40;10.00
30713;PMS7003;17465;47.934;33.430;2023-07-13T08:05:09;18.60;18.60;14.40
30713;PMS7003;17465;47.934;33.430;2023-07-13T08:07:41;12.60;11.80;8.00
30713;PMS7003;17465;47.934;33.430;2023-07-13T08:10:12;9.20;8.80;7.00
30713;PMS7003;17465;47.934;33.430;2023-07-13T08:12:43;9.80;9.00;7.00
30713;PMS7003;17465;47.934;33.430;2023-07-13T08:15:16;11.20;11.20;7.40
30713;PMS7003;17465;47.934;33.430;2023-07-13T08:17:47;23.40;21.40;15.40
30713;PMS7003;17465;47.934;33.430;2023-07-13T08:20:18;14.20;14.20;10.20
30713;PMS7003;17465;47.934;33.430;2023-07-13T08:22:57;17.60;16.80;12.20
30713;PMS7003;17465;47.934;33.430;2023-07-13T08:25:28;6.80;5.40;2.40
30713;PMS7003;17465;47.934;33.430;2023-07-13T08:27:58;26.40;25.40;18.20
30713;PMS7003;17465;47.934;33.430;2023-07-13T08:30:34;30.80;29.00;20.40
30713;PMS7003;17465;47.934;33.430;2023-07-13T08:33:05;19.00;18.40;14.60
30713;PMS7003;17465;47.934;33.430;2023-07-13T08:35:43;18.80;18.80;15.00
30713;PMS7003;17465;47.934;33.430;2023-07-13T08:38:21;23.60;23.60;17.80
30713;PMS7003;17465;47.934;33.430;2023-07-13T08:40:58;21.00;20.20;17.80
30713;PMS7003;17465;47.934;33.430;2023-07-13T08:43:35;23.80;23.80;17.60
30713;PMS7003;17465;47.934;33.430;2023-07-13T08:49:12;21.20;21.20;16.20
30713;PMS7003;17465;47.934;33.430;2023-07-13T08:51:59;16.40;14.40;11.60
30713;PMS7003;17465;47.934;33.430;2023-07-13T08:54:42;16.00;15.40;12.60
30713;PMS7003;17465;47.934;33.430;2023-07-13T08:57:21;16.40;14.40;12.40
30713;PMS7003;17465;47.934;33.430;2023-07-13T09:00:13;14.80;14.20;11.80
30713;PMS7003;17465;47.934;33.430;2023-07-13T09:05:54;20.60;17.80;12.20
30713;PMS7003;17465;47.934;33.430;2023-07-13T09:11:43;11.60;11.00;8.00
30713;PMS7003;17465;47.934;33.430;2023-07-13T09:14:43;11.60;11.20;8.00
30713;PMS7003;17465;47.934;33.430;2023-07-13T09:17:29;11.00;11.00;8.20
30713;PMS7003;17465;47.934;33.430;2023-07-13T09:23:16;8.80;8.80;7.20
30713;PMS7003;17465;47.934;33.430;2023-07-13T09:26:17;14.60;13.80;8.60
30713;PMS7003;17465;47.934;33.430;2023-07-13T09:28:57;11.60;11.20;8.20
30713;PMS7003;17465;47.934;33.430;2023-07-13T09:31:53;11.40;11.20;9.00
30713;PMS7003;17465;47.934;33.430;2023-07-13T09:34:53;14.60;13.80;10.40
30713;PMS7003;17465;47.934;33.430;2023-07-13T09:37:37;12.00;12.00;8.80
30713;PMS7003;17465;47.934;33.430;2023-07-13T09:40:10;8.80;8.60;6.80
30713;PMS7003;17465;47.934;33.430;2023-07-13T09:42:54;14.00;13.80;10.60
30713;PMS7003;17465;47.934;33.430;2023-07-13T09:45:28;17.80;17.00;13.40
30713;PMS7003;17465;47.934;33.430;2023-07-13T09:48:11;14.60;14.60;11.60
30713;PMS7003;17465;47.934;33.430;2023-07-13T09:50:47;17.80;16.60;13.60
30713;PMS7003;17465;47.934;33.430;2023-07-13T09:53:36;14.20;14.00;10.80
30713;PMS7003;17465;47.934;33.430;2023-07-13T09:56:02;13.40;12.80;8.80
30713;PMS7003;17465;47.934;33.430;2023-07-13T09:58:57;14.40;14.40;11.80
30713;PMS7003;17465;47.934;33.430;2023-07-13T10:01:42;15.60;15.60;13.80
30713;PMS7003;17465;47.934;33.430;2023-07-13T10:04:13;17.40;16.00;11.80
30713;PMS7003;17465;47.934;33.430;2023-07-13T10:06:46;12.60;12.60;9.00
30713;PMS7003;17465;47.934;33.430;2023-07-13T10:09:19;14.40;14.00;10.60
30713;PMS7003;17465;47.934;33.430;2023-07-13T10:11:51;11.20;11.20;8.00
30713;PMS7003;17465;47.934;33.430;2023-07-13T10:14:33;13.60;13.40;10.40
30713;PMS7003;17465;47.934;33.430;2023-07-13T10:17:29;22.40;19.40;12.80
30713;PMS7003;17465;47.934;33.430;2023-07-13T10:20:06;13.40;13.40;11.80
30713;PMS7003;17465;47.934;33.430;2023-07-13T10:25:53;16.00;16.00;12.00
30713;PMS7003;17465;47.934;33.430;2023-07-13T10:28:30;15.00;15.00;11.40
30713;PMS7003;17465;47.934;33.430;2023-07-13T10:31:02;17.80;16.00;11.80
30713;PMS7003;17465;47.934;33.430;2023-07-13T10:33:46;15.60;15.60;11.40
30713;PMS7003;17465;47.934;33.430;2023-07-13T10:39:05;13.60;13.60;8.60
30713;PMS7003;17465;47.934;33.430;2023-07-13T10:41:39;14.20;13.80;10.40
30713;PMS7003;17465;47.934;33.430;2023-07-13T10:45:04;7.80;7.80;7.60
30713;PMS7003;17465;47.934;33.430;2023-07-13T10:48:17;13.00;13.00;9.60
30713;PMS7003;17465;47.934;33.430;2023-07-13T10:56:03;11.80;10.60;8.20
30713;PMS7003;17465;47.934;33.430;2023-07-13T10:58:42;10.40;10.40;8.60
30713;PMS7003;17465;47.934;33.430;2023-07-13T11:01:23;14.00;11.60;8.00
30713;PMS7003;17465;47.934;33.430;2023-07-13T11:03:55;13.00;13.00;9.40
30713;PMS7003;17465;47.934;33.430;2023-07-13T11:06:33;14.40;14.40;10.80
30713;PMS7003;17465;47.934;33.430;2023-07-13T11:15:05;23.40;22.00;16.60
30713;PMS7003;17465;47.934;33.430;2023-07-13T11:17:50;23.60;22.60;16.60
30713;PMS7003;17465;47.934;33.430;2023-07-13T11:20:30;15.00;15.00;12.00
30713;PMS7003;17465;47.934;33.430;2023-07-13T11:25:45;14.00;13.20;10.80
30713;PMS7003;17465;47.934;33.430;2023-07-13T11:28:21;14.60;14.60;11.80
30713;PMS7003;17465;47.934;33.430;2023-07-13T11:31:16;20.20;19.00;14.60
30713;PMS7003;17465;47.934;33.430;2023-07-13T11:33:59;17.80;17.20;13.20
30713;PMS7003;17465;47.934;33.430;2023-07-13T11:36:46;18.40;17.40;13.80
30713;PMS7003;17465;47.934;33.430;2023-07-13T11:39:22;16.20;16.20;13.00
30713;PMS7003;17465;47.934;33.430;2023-07-13T11:42:07;16.20;16.20;13.00
30713;PMS7003;17465;47.934;33.430;2023-07-13T11:44:49;18.80;18.80;15.00
30713;PMS7003;17465;47.934;33.430;2023-07-13T11:47:28;17.60;17.60;15.00
30713;PMS7003;17465;47.934;33.430;2023-07-13T11:50:18;25.20;24.60;19.20
30713;PMS7003;17465;47.934;33.430;2023-07-13T11:52:59;19.80;19.40;13.80
30713;PMS7003;17465;47.934;33.430;2023-07-13T11:55:57;18.40;18.40;13.20
30713;PMS7003;17465;47.934;33.430;2023-07-13T11:58:26;14.40;14.40;8.60
30713;PMS7003;17465;47.934;33.430;2023-07-13T12:01:00;15.40;13.40;10.40
30713;PMS7003;17465;47.934;33.430;2023-07-13T12:03:32;23.80;23.00;17.40
30713;PMS7003;17465;47.934;33.430;2023-07-13T12:06:34;25.00;24.80;17.20
30713;PMS7003;17465;47.934;33.430;2023-07-13T12:08:55;24.60;24.20;19.40
30713;PMS7003;17465;47.934;33.430;2023-07-13T12:11:29;25.00;24.80;19.00
30713;PMS7003;17465;47.934;33.430;2023-07-13T12:14:13;26.60;25.20;20.00
30713;PMS7003;17465;47.934;33.430;2023-07-13T12:16:48;21.20;19.40;14.00
30713;PMS7003;17465;47.934;33.430;2023-07-13T12:19:20;24.00;24.00;17.20
30713;PMS7003;17465;47.934;33.430;2023-07-13T12:21:58;27.00;26.00;19.00
30713;PMS7003;17465;47.934;33.430;2023-07-13T12:24:31;27.40;26.20;19.20
30713;PMS7003;17465;47.934;33.430;2023-07-13T12:27:04;20.60;20.40;15.40
30713;PMS7003;17465;47.934;33.430;2023-07-13T12:29:35;20.60;18.60;14.00
30713;PMS7003;17465;47.934;33.430;2023-07-13T12:32:08;5.60;5.20;0.00
30713;PMS7003;17465;47.934;33.430;2023-07-13T12:34:53;19.80;19.40;15.60
30713;PMS7003;17465;47.934;33.430;2023-07-13T12:37:25;13.20;13.20;10.60
30713;PMS7003;17465;47.934;33.430;2023-07-13T12:39:55;15.20;14.40;12.00
30713;PMS7003;17465;47.934;33.430;2023-07-13T12:42:28;17.60;17.20;13.00
30713;PMS7003;17465;47.934;33.430;2023-07-13T12:45:03;26.20;;18.20
30713;PMS7003;17465;47.934;33.430;2023-07-13T12:47:50;28.40;25.20;18.00
30713;PMS7003;17465;47.934;33.430;2023-07-13T12:50:29;25.00;24.00;18.00
30713;PMS7003;17465;47.934;33.430;2023-07-13T12:53:01;22.40;22.40;17.40
30713;PMS7003;17465;47.934;33.430;2023-07-13T12:55:40;27.60;26.00;19.40
30713;PMS7003;17465;47.934;33.430;2023-07-13T12:58:24;28.80;26.80;19.80
30713;PMS7003;17465;47.934;33.430;2023-07-13T13:01:00;20.80;20.80;15.60
30713;PMS7003;17465;47.934;33.430;2023-07-13T13:03:38;16.40;16.40;13.60
30713;PMS7003;17465;47.934;33.430;2023-07-13T13:08:53;23.80;22.40;16.40
30713;PMS7003;17465;47.934;33.430;2023-07-13T13:11:25;24.80;24.40;17.40
30713;PMS7003;17465;47.934;33.430;2023-07-13T13:13:57;19.80;19.80;14.80
30713;PMS7003;17465;47.934;33.430;2023-07-13T13:16:31;21.20;20.80;16.20
30713;PMS7003;17465;47.934;33.430;2023-07-13T13:19:15;27.20;26.60;19.20
30713;PMS7003;17465;47.934;33.430;2023-07-13T13:21:38;15.20;15.00;10.60
30713;PMS7003;17465;47.934;33.430;2023-07-13T13:24:16;12.00;12.00;9.60
30713;PMS7003;17465;47.934;33.430;2023-07-13T13:26:51;11.60;11.60;7.60
30713;PMS7003;17465;47.934;33.430;2023-07-13T13:29:25;11.40;9.60;6.80
30713;PMS7003;17465;47.934;33.430;2023-07-13T13:31:59;12.60;12.00;8.40
30713;PMS7003;17465;47.934;33.430;2023-07-13T13:34:51;10.20;10.20;7.80
30713;PMS7003;17465;47.934;33.430;2023-07-13T13:37:24;14.00;12.40;9.60
30713;PMS7003;17465;47.934;33.430;2023-07-13T13:40:15;14.40;13.20;8.40
30713;PMS7003;17465;47.934;33.430;2023-07-13T13:42:47;12.60;12.60;8.20
30713;PMS7003;17465;47.934;33.430;2023-07-13T13:45:22;12.20;10.60;7.60
30713;PMS7003;17465;47.934;33.430;2023-07-13T13:47:57;13.40;13.20;9.80
30713;PMS7003;17465;47.934;33.430;2023-07-13T13:50:29;15.40;14.20;10.40
30713;PMS7003;17465;47.934;33.430;2023-07-13T13:52:59;14.20;12.60;8.60
30713;PMS7003;17465;47.934;33.430;2023-07-13T13:55:30;17.80;13.00;8.60
30713;PMS7003;17465;47.934;33.430;2023-07-13T13:58:00;13.00;13.00;10.00
30713;PMS7003;17465;47.934;33.430;2023-07-13T14:00:31;15.20;14.20;9.20
30713;PMS7003;17465;47.934;33.430;2023-07-13T14:03:02;13.60;13.20;9.20
30713;PMS7003;17465;47.934;33.430;2023-07-13T14:05:43;15.00;15.00;10.20
30713;PMS7003;17465;47.934;33.430;2023-07-13T14:08:16;10.40;10.40;6.80
30713;PMS7003;17465;47.934;33.430;2023-07-13T14:10:49;7.80;7.40;6.40
30713;PMS7003;17465;47.934;33.430;2023-07-13T14:13:25;14.40;14.40;10.20
30713;PMS7003;17465;47.934;33.430;2023-07-13T14:15:58;15.00;14.60;11.80
30713;PMS7003;17465;47.934;33.430;2023-07-13T14:18:31;13.80;13.80;9.60
30713;PMS7003;17465;47.934;33.430;2023-07-13T14:21:10;15.60;15.00;10.20
30713;PMS7003;17465;47.934;33.430;2023-07-13T14:23:45;16.00;15.80;12.20
30713;PMS7003;17465;47.934;33.430;2023-07-13T14:26:23;21.40;21.40;14.80
30713;PMS7003;17465;47.934;33.430;2023-07-13T14:28:51;16.20;16.20;12.40
30713;PMS7003;17465;47.934;33.430;2023-07-13T14:31:25;17.00;17.00;11.20
30713;PMS7003;17465;47.934;33.430;2023-07-13T14:34:00;23.40;21.40;16.60
30713;PMS7003;17465;47.934;33.430;2023-07-13T14:36:33;22.40;22.40;16.00
30713;PMS7003;17465;47.934;33.430;2023-07-13T14:41:49;13.40;13.00;9.20
30713;PMS7003;17465;47.934;33.430;2023-07-13T14:44:29;15.00;15.00;10.60
30713;PMS7003;17465;47.934;33.430;2023-07-13T14:47:05;24.40;24.40;19.20
30713;PMS7003;17465;47.934;33.430;2023-07-13T14:49:42;35.00;30.80;22.00
30713;PMS7003;17465;47.934;33.430;2023-07-13T14:52:16;23.00;23.00;16.00
30713;PMS7003;17465;47.934;33.430;2023-07-13T14:54:51;24.40;23.60;17.00
30713;PMS7003;17465;47.934;33.430;2023-07-13T14:57:22;32.00;27.60;20.00
30713;PMS7003;17465;47.934;33.430;2023-07-13T14:59:57;28.20;25.40;19.00